Latest Weather Observations for Douglas River

IDD60801

Issued at 10:31 am CST Monday 30 March 2015 (issued every 30 minutes, with the page automatically refreshed every 10 minutes)

About weather observations | Map of weather stations | Latest weather observations for NT | Other Formats
Station Details ID: 014901 Name: DOUGLAS RIVER Lat: -13.83 Lon: 131.19 Height: 42.8 m
Data from the previous 72 hours. | See also: Recent months at Douglas River
Date/Time
CST
Temp
°C
App
Temp
°C
Dew
Point
Rel
Hum
%
Delta-T
°C
Wind Press
QNH
hPa
Press
MSL
hPa
Rain
since 9 am
mm
Dir
 
Spd
km/h
Gust
km/h
Spd
kts
Gust
kts
30/10:30am 31.4 35.6 23.1 61 5.7 NE 6 6 3 3 1013.8 1013.5 -
30/10:00am 29.7 34.5 23.5 69 4.3 NNE 4 7 2 4 1014.0 1013.7 0.0
30/09:30am 28.3 32.6 22.6 71 3.9 ESE 4 9 2 5 1014.0 1013.7 0.0
30/09:00am 26.7 31.4 22.7 79 2.7 SE 2 7 1 4 1013.9 1013.6 0.0
30/08:30am 24.6 29.5 22.4 87 1.5 CALM 0 0 0 0 1013.5 1013.2 0.0
30/08:00am 22.7 27.3 21.8 95 0.6 CALM 0 0 0 0 1013.2 1012.9 0.0
30/07:30am 21.9 26.3 21.4 97 0.3 CALM 0 0 0 0 1012.7 1012.4 0.0
30/07:00am 21.4 25.6 20.9 97 0.3 CALM 0 0 0 0 1012.2 1011.9 0.0
30/06:30am 21.1 25.1 20.6 97 0.3 CALM 0 0 0 0 1011.9 1011.6 0.0
30/06:00am 20.9 24.8 20.4 97 0.3 CALM 0 0 0 0 1011.7 1011.4 0.0
30/05:30am 21.5 25.6 20.7 95 0.5 CALM 0 6 0 3 1011.6 1011.3 0.0
30/05:00am 21.8 26.0 21.0 95 0.5 CALM 0 0 0 0 1011.5 1011.2 0.0
30/04:30am 22.7 27.2 21.6 93 0.7 CALM 0 0 0 0 1011.3 1011.0 0.0
30/04:00am 22.4 26.8 21.3 93 0.7 CALM 0 0 0 0 1011.2 1010.9 0.0
30/03:30am 23.3 27.4 21.6 90 1.1 N 2 6 1 3 1011.3 1011.0 0.0
30/03:00am 23.4 28.2 22.2 93 0.8 CALM 0 0 0 0 1011.2 1010.9 0.0
30/02:30am 23.3 28.2 22.3 94 0.7 CALM 0 0 0 0 1011.4 1011.1 0.0
30/02:00am 23.0 27.9 22.3 96 0.5 CALM 0 0 0 0 1011.7 1011.4 0.0
30/01:30am 23.0 27.9 22.3 96 0.5 CALM 0 0 0 0 1011.9 1011.6 0.0
30/01:00am 23.6 28.5 22.4 93 0.8 CALM 0 0 0 0 1012.2 1011.9 0.0
30/12:30am 24.7 29.5 22.2 86 1.7 CALM 0 0 0 0 1012.7 1012.4 0.0
30/12:00am 24.7 29.7 22.5 87 1.5 CALM 0 0 0 0 1013.0 1012.7 0.0
 
Date/Time
CST
Temp
°C
App
Temp
°C
Dew
Point
Rel
Hum
%
Delta-T
°C
Wind Press
QNH
hPa
Press
MSL
hPa
Rain
since 9 am
mm
Dir
 
Spd
km/h
Gust
km/h
Spd
kts
Gust
kts
29/11:30pm 25.0 29.8 22.2 84 1.9 CALM 0 0 0 0 1013.3 1013.0 0.0
29/11:00pm 25.1 30.3 22.9 87 1.5 CALM 0 0 0 0 1013.4 1013.1 0.0
29/10:30pm 25.8 30.6 22.1 80 2.5 CALM 0 0 0 0 1013.6 1013.3 0.0
29/10:00pm 26.3 31.1 22.1 77 2.8 CALM 0 0 0 0 1013.3 1013.0 0.0
29/09:30pm 27.2 30.4 21.2 69 4.0 E 6 7 3 4 1013.1 1012.8 0.0
29/09:00pm 27.2 30.9 22.2 74 3.4 E 6 9 3 5 1012.8 1012.5 0.0
29/08:30pm 28.1 31.1 21.2 66 4.6 ESE 7 9 4 5 1012.4 1012.1 0.0
29/08:00pm 28.3 30.4 20.9 64 4.9 ESE 11 13 6 7 1012.1 1011.8 0.0
29/07:30pm 29.4 31.2 20.3 58 6.0 ESE 11 13 6 7 1011.8 1011.5 0.0
29/07:00pm 29.6 31.8 21.2 60 5.6 ESE 11 13 6 7 1011.4 1011.1 0.0
29/06:30pm 31.4 34.2 21.5 55 6.7 ESE 9 13 5 7 1011.0 1010.7 0.0
29/06:00pm 33.1 33.6 20.0 46 8.7 ESE 17 24 9 13 1010.7 1010.4 0.0
29/05:30pm 33.5 33.8 19.6 44 9.2 E 17 20 9 11 1010.3 1010.0 0.0
29/05:00pm 33.5 34.2 20.5 46 8.7 E 17 24 9 13 1010.1 1009.8 0.0
29/04:30pm 34.6 34.5 19.9 42 9.8 ESE 20 28 11 15 1010.1 1009.8 0.0
29/04:00pm 34.3 34.9 20.3 44 9.4 E 17 24 9 13 1010.1 1009.8 0.0
29/03:30pm 34.2 34.5 20.7 45 9.1 ESE 20 30 11 16 1010.1 1009.8 0.0
29/03:00pm 34.4 34.8 20.6 44 9.3 ESE 19 28 10 15 1010.1 1009.8 0.0
29/02:30pm 34.6 34.7 20.3 43 9.6 ESE 20 30 11 16 1010.5 1010.2 0.0
29/02:00pm 34.1 35.9 21.1 46 8.8 E 13 24 7 13 1010.8 1010.5 0.0
29/01:30pm 33.3 34.8 21.3 49 8.1 E 15 22 8 12 1011.2 1010.9 0.0
29/01:00pm 32.7 35.0 22.0 53 7.3 SE 13 22 7 12 1011.9 1011.6 0.0
29/12:30pm 32.6 35.1 21.7 52 7.4 SE 11 24 6 13 1012.4 1012.1 0.0
29/12:00pm 33.2 37.0 22.7 54 7.2 NE 7 15 4 8 1012.8 1012.5 0.0
29/11:30am 32.6 35.8 22.4 55 7.0 ENE 9 20 5 11 1013.3 1013.0 0.0
29/11:00am 31.8 35.9 23.9 63 5.5 ENE 9 19 5 10 1013.5 1013.2 0.0
29/10:30am 30.8 35.7 24.4 68 4.5 NNW 6 9 3 5 1013.8 1013.5 0.0
29/10:00am 30.1 35.4 25.0 74 3.6 SW 6 7 3 4 1013.8 1013.5 0.0
29/09:30am 28.9 33.9 24.8 78 2.9 WSW 7 9 4 5 1013.7 1013.4 0.0
29/09:00am 28.0 34.4 24.9 83 2.2 CALM 0 0 0 0 1013.5 1013.2 0.0
29/08:30am 26.9 33.5 25.3 91 1.1 CALM 0 0 0 0 1013.2 1012.9 0.0
29/08:00am 24.8 30.9 24.4 98 0.3 CALM 0 0 0 0 1012.9 1012.6 0.0
29/07:30am 24.0 29.7 23.7 98 0.2 CALM 0 0 0 0 1012.7 1012.4 0.0
29/07:00am 24.2 29.9 23.8 98 0.3 CALM 0 0 0 0 1012.4 1012.1 0.0
29/06:30am 24.1 29.8 23.8 98 0.2 CALM 0 0 0 0 1012.2 1011.9 0.0
29/06:00am 24.2 29.9 23.8 98 0.3 CALM 0 0 0 0 1011.8 1011.5 0.0
29/05:30am 23.7 29.2 23.4 98 0.2 CALM 0 0 0 0 1011.7 1011.4 0.0
29/05:00am 24.2 30.0 23.9 98 0.2 CALM 0 0 0 0 1011.3 1011.0 0.0
29/04:30am 24.2 29.9 23.8 98 0.3 CALM 0 0 0 0 1011.2 1010.9 0.0
29/04:00am 24.3 29.2 23.7 96 0.4 SSE 4 7 2 4 1011.2 1010.9 0.0
29/03:30am 24.5 30.3 23.9 96 0.4 CALM 0 0 0 0 1011.2 1010.9 0.0
29/03:00am 25.3 31.5 24.6 96 0.5 CALM 0 0 0 0 1011.4 1011.1 0.0
29/02:30am 25.4 31.7 24.7 96 0.5 CALM 0 0 0 0 1011.7 1011.4 0.0
29/02:00am 25.7 31.2 24.7 94 0.7 NNE 4 6 2 3 1012.0 1011.7 0.0
29/01:30am 25.9 31.8 24.7 93 0.8 N 2 6 1 3 1012.2 1011.9 0.0
29/01:00am 26.2 31.7 24.6 91 1.1 N 4 6 2 3 1012.7 1012.4 0.0
29/12:30am 26.0 31.6 24.3 90 1.2 N 2 7 1 4 1013.1 1012.8 0.0
29/12:00am 26.1 32.1 24.2 89 1.3 CALM 0 0 0 0 1013.3 1013.0 0.0
 
Date/Time
CST
Temp
°C
App
Temp
°C
Dew
Point
Rel
Hum
%
Delta-T
°C
Wind Press
QNH
hPa
Press
MSL
hPa
Rain
since 9 am
mm
Dir
 
Spd
km/h
Gust
km/h
Spd
kts
Gust
kts
28/11:30pm 26.3 32.0 23.8 86 1.7 CALM 0 0 0 0 1013.2 1012.9 0.0
28/11:00pm 26.5 30.7 23.1 81 2.3 WNW 6 9 3 5 1013.1 1012.8 0.0
28/10:30pm 26.1 31.7 23.5 85 1.8 CALM 0 0 0 0 1012.9 1012.6 0.0
28/10:00pm 25.9 31.6 23.7 88 1.5 CALM 0 0 0 0 1012.6 1012.3 0.0
28/09:30pm 26.1 31.5 23.3 84 1.9 CALM 0 0 0 0 1012.4 1012.1 0.0
28/09:00pm 27.6 31.1 21.9 71 3.8 NW 6 6 3 3 1012.2 1011.9 0.0
28/08:30pm 28.1 31.8 21.4 67 4.5 WNW 4 7 2 4 1012.0 1011.7 0.0
28/08:00pm 27.8 33.2 23.3 76 3.1 CALM 0 0 0 0 1011.8 1011.5 0.0
28/07:30pm 28.8 32.6 20.1 59 5.7 CALM 0 0 0 0 1011.3 1011.0 0.0
28/07:00pm 30.3 33.3 18.5 49 7.6 CALM 0 0 0 0 1010.9 1010.6 0.0
28/06:30pm 31.3 35.6 21.2 55 6.8 CALM 0 0 0 0 1010.6 1010.3 0.0
28/06:00pm 33.0 36.6 19.7 45 8.8 CALM 0 0 0 0 1010.3 1010.0 0.0
28/05:30pm 34.2 37.0 18.8 40 10.1 NE 2 7 1 4 1010.0 1009.7 0.0
28/05:00pm 34.6 37.5 19.0 39 10.3 NE 2 7 1 4 1009.8 1009.5 0.0
28/04:30pm 35.0 37.4 18.7 38 10.7 NNE 4 7 2 4 1009.6 1009.3 0.0
28/04:00pm 35.0 36.2 17.3 35 11.4 ENE 7 13 4 7 1009.7 1009.4 0.0
28/03:30pm 35.2 36.9 18.6 37 10.9 NE 7 15 4 8 1009.8 1009.5 0.0
28/03:00pm 34.8 36.5 18.4 38 10.7 NE 7 11 4 6 1010.1 1009.8 0.0
28/02:30pm 34.9 36.9 18.8 38 10.6 NNE 6 13 3 7 1010.6 1010.3 0.0
28/02:00pm 34.5 36.2 18.4 38 10.5 NNE 7 11 4 6 1011.1 1010.8 0.0
28/01:30pm 33.8 34.4 17.7 38 10.4 ENE 11 22 6 12 1011.7 1011.4 0.0
28/01:00pm 34.0 36.3 19.9 43 9.4 NE 7 19 4 10 1012.1 1011.8 0.0
28/12:30pm 33.7 36.5 20.8 46 8.7 NNE 7 11 4 6 1012.7 1012.4 0.0
28/12:00pm 32.8 36.1 21.4 51 7.7 E 6 11 3 6 1013.1 1012.8 0.0
28/11:30am 31.7 36.2 23.6 62 5.6 WNW 6 11 3 6 1013.4 1013.1 0.0
28/11:00am 31.5 36.3 24.2 65 5.1 ENE 6 9 3 5 1013.7 1013.4 0.0
28/10:30am 30.2 35.0 23.5 67 4.6 WSW 4 11 2 6 1013.9 1013.6 0.0
28/10:00am 29.2 33.6 23.5 71 3.9 E 6 11 3 6 1013.8 1013.5 0.0
28/09:30am 28.2 32.7 24.0 78 2.9 SE 7 11 4 6 1013.8 1013.5 0.0
28/09:00am 27.1 31.8 23.9 82 2.2 SE 6 9 3 5 1013.5 1013.2 6.4
28/08:30am 26.0 30.6 23.8 88 1.5 ESE 6 7 3 4 1013.3 1013.0 6.4
28/08:00am 24.7 29.2 24.0 96 0.5 ESE 7 9 4 5 1013.2 1012.9 6.4
28/07:30am 24.1 29.8 23.7 98 0.3 CALM 0 0 0 0 1012.9 1012.6 6.4
28/07:00am 23.6 29.2 23.5 99 0.1 CALM 0 0 0 0 1012.4 1012.1 6.4
28/06:30am 23.6 29.0 23.3 98 0.2 CALM 0 0 0 0 1012.1 1011.8 6.4
28/06:00am 23.6 29.0 23.3 98 0.2 CALM 0 0 0 0 1012.1 1011.8 6.4
28/05:30am 23.7 29.2 23.4 98 0.2 CALM 0 0 0 0 1011.8 1011.5 6.4
28/05:00am 23.7 29.2 23.4 98 0.2 CALM 0 0 0 0 1011.5 1011.2 6.4
28/04:30am 23.7 29.2 23.4 98 0.2 CALM 0 4 0 2 1011.6 1011.3 6.4
28/04:00am 23.7 29.2 23.4 98 0.2 CALM 0 0 0 0 1011.6 1011.3 6.4
28/03:30am 23.7 29.2 23.4 98 0.2 CALM 0 0 0 0 1011.8 1011.5 6.4
28/03:00am 23.7 29.2 23.4 98 0.2 CALM 0 0 0 0 1012.0 1011.7 6.4
28/02:30am 23.7 29.2 23.4 98 0.2 CALM 0 0 0 0 1012.1 1011.8 6.4
28/02:00am 23.9 29.5 23.5 98 0.3 CALM 0 0 0 0 1012.4 1012.1 6.4
28/01:30am 24.1 29.7 23.5 96 0.4 CALM 0 0 0 0 1012.7 1012.4 6.4
28/01:00am 24.1 29.0 23.7 98 0.3 SSW 4 7 2 4 1013.0 1012.7 6.4
28/12:30am 24.3 29.7 23.9 98 0.3 SW 2 7 1 4 1013.4 1013.1 6.4
28/12:00am 24.4 30.1 23.8 96 0.4 CALM 0 0 0 0 1013.7 1013.4 6.2
 
Date/Time
CST
Temp
°C
App
Temp
°C
Dew
Point
Rel
Hum
%
Delta-T
°C
Wind Press
QNH
hPa
Press
MSL
hPa
Rain
since 9 am
mm
Dir
 
Spd
km/h
Gust
km/h
Spd
kts
Gust
kts
27/11:30pm 24.4 30.1 23.8 96 0.4 CALM 0 0 0 0 1013.9 1013.6 6.2
27/11:00pm 24.5 30.2 23.8 96 0.5 CALM 0 0 0 0 1014.1 1013.8 6.2
27/10:30pm 24.6 30.3 23.7 95 0.6 CALM 0 0 0 0 1014.5 1014.2 6.2
27/10:00pm 24.9 30.9 24.2 96 0.5 CALM 0 0 0 0 1014.7 1014.4 6.2
27/09:30pm 24.9 30.9 24.3 96 0.4 CALM 0 0 0 0 1014.9 1014.6 6.2
27/09:00pm 24.8 30.8 24.2 96 0.4 CALM 0 0 0 0 1015.0 1014.7 6.2
27/08:30pm 25.1 31.1 24.2 95 0.6 CALM 0 0 0 0 1014.7 1014.4 6.2
27/08:00pm 24.8 30.8 24.2 96 0.4 CALM 0 0 0 0 1014.3 1014.0 6.2
27/07:30pm 24.9 30.7 23.9 94 0.7 CALM 0 0 0 0 1013.5 1013.2 6.0
27/07:00pm 24.9 30.7 24.0 95 0.6 CALM 0 0 0 0 1013.2 1012.9 6.0
27/06:30pm 25.2 30.1 23.7 91 1.0 S 4 9 2 5 1012.8 1012.5 6.0
27/06:00pm 24.9 29.2 23.3 91 1.1 WSW 6 9 3 5 1012.5 1012.2 6.0
27/05:30pm 27.3 28.1 22.4 74 3.3 SE 22 32 12 17 1011.8 1011.5 0.0
27/05:00pm 28.6 30.3 23.0 71 3.8 ESE 19 32 10 17 1011.5 1011.2 0.0
27/04:30pm 32.2 35.9 22.6 57 6.6 ENE 7 11 4 6 1010.8 1010.5 0.0
27/04:00pm 32.9 36.9 23.1 56 6.8 NE 7 17 4 9 1010.8 1010.5 0.0
27/03:30pm 32.8 36.9 22.9 56 6.8 NNE 6 11 3 6 1010.7 1010.4 0.0
27/03:00pm 32.5 36.8 23.3 58 6.4 N 6 7 3 4 1011.0 1010.7 0.0
27/02:30pm 32.3 37.0 24.0 61 5.8 N 6 9 3 5 1011.8 1011.5 0.0
27/02:00pm 31.2 36.1 24.6 68 4.6 NNW 7 13 4 7 1012.5 1012.2 0.0
27/01:30pm 31.3 36.2 24.4 66 4.8 N 6 7 3 4 1012.9 1012.6 0.0
27/01:00pm 30.6 35.6 24.5 70 4.3 NE 6 11 3 6 1013.4 1013.1 0.0
27/12:30pm 30.1 35.2 24.7 73 3.8 NNE 6 9 3 5 1013.7 1013.4 0.0
27/12:00pm 29.2 34.1 24.6 76 3.2 ENE 7 11 4 6 1014.0 1013.7 0.0
27/11:30am 28.8 33.7 24.3 76 3.1 NE 6 9 3 5 1014.6 1014.3 0.0
27/11:00am 28.2 34.2 24.8 82 2.4 E 2 7 1 4 1015.0 1014.7 0.0

Other Formats:

Comma delimited format used in spreadsheet applications
http://www.bom.gov.au/fwo/IDD60801/IDD60801.94128.axf

JavaScript Object Notation format (JSON) in row-major order
http://www.bom.gov.au/fwo/IDD60801/IDD60801.94128.json